createdAt,value
2023-09-04T00:04:44.482Z,19.91
2023-09-04T00:09:48.209Z,19.77
2023-09-04T00:14:53.104Z,19.79
2023-09-04T00:19:56.564Z,19.72
2023-09-04T00:25:00.039Z,19.61
2023-09-04T00:30:05.360Z,19.51
2023-09-04T00:35:14.933Z,19.50
2023-09-04T00:40:18.820Z,19.41
2023-09-04T00:45:24.269Z,19.46
2023-09-04T00:50:27.997Z,19.36
2023-09-04T00:55:31.919Z,19.39
2023-09-04T01:00:36.840Z,19.31
2023-09-04T01:05:40.432Z,19.28
2023-09-04T01:10:53.108Z,19.16
2023-09-04T01:15:59.422Z,19.20
2023-09-04T01:21:05.531Z,19.22
2023-09-04T01:26:15.590Z,19.23
2023-09-04T01:31:25.381Z,19.25
2023-09-04T01:36:32.620Z,19.20
2023-09-04T01:41:39.459Z,19.17
2023-09-04T01:46:43.194Z,19.22
2023-09-04T01:51:48.123Z,19.12
2023-09-04T01:57:16.403Z,19.11
2023-09-04T02:02:20.067Z,19.07
2023-09-04T02:07:25.018Z,19.15
2023-09-04T02:12:28.611Z,19.16
2023-09-04T02:17:32.422Z,19.16
2023-09-04T02:22:37.461Z,19.08
2023-09-04T02:27:40.963Z,19.12
2023-09-04T02:32:45.406Z,18.99
2023-09-04T02:37:50.353Z,18.99
2023-09-04T02:42:53.996Z,19.02
2023-09-04T02:47:57.648Z,18.95
2023-09-04T02:53:02.566Z,19.04
2023-09-04T02:58:08.602Z,19.00
2023-09-04T03:03:14.178Z,19.02
2023-09-04T03:08:19.289Z,19.15
2023-09-04T03:13:22.798Z,19.01
2023-09-04T03:18:26.820Z,19.01
2023-09-04T03:23:32.340Z,18.96
2023-09-04T03:28:36.024Z,19.10
2023-09-04T03:33:40.689Z,19.05
2023-09-04T03:38:47.652Z,19.14
2023-09-04T03:43:52.035Z,19.18
2023-09-04T03:48:56.125Z,19.11
2023-09-04T03:54:03.728Z,18.87
2023-09-04T03:59:07.832Z,18.92
2023-09-04T04:04:12.794Z,18.81
2023-09-04T04:09:18.629Z,18.83
2023-09-04T04:14:22.095Z,18.82
2023-09-04T04:19:25.574Z,18.93
2023-09-04T04:24:31.891Z,18.93
2023-09-04T04:29:35.644Z,18.98
2023-09-04T04:34:39.292Z,19.11
2023-09-04T04:39:44.302Z,19.15
2023-09-04T04:44:47.855Z,19.31
2023-09-04T04:49:52.837Z,19.36
2023-09-04T04:54:58.019Z,19.50
2023-09-04T05:00:01.917Z,19.59
2023-09-04T05:05:09.514Z,19.75
2023-09-04T05:10:15.132Z,19.95
2023-09-04T05:15:19.829Z,20.10
2023-09-04T05:20:24.796Z,20.34
2023-09-04T05:25:29.735Z,20.42
2023-09-04T05:30:35.281Z,20.56
2023-09-04T05:35:38.819Z,20.65
2023-09-04T05:40:43.824Z,20.62
2023-09-04T05:45:47.383Z,20.51
2023-09-04T05:50:50.901Z,20.50
2023-09-04T05:56:10.522Z,20.48
2023-09-04T06:01:17.893Z,20.47
2023-09-04T06:06:21.460Z,20.64
2023-09-04T06:11:26.450Z,20.72
2023-09-04T06:16:30.010Z,21.03
2023-09-04T06:21:33.801Z,21.15
2023-09-04T06:26:41.221Z,21.03
2023-09-04T06:31:44.858Z,21.52
2023-09-04T06:36:53.925Z,21.80
2023-09-04T06:41:58.808Z,21.65
2023-09-04T06:47:07.371Z,21.97
2023-09-04T06:52:13.769Z,22.26
2023-09-04T06:57:19.038Z,22.41
2023-09-04T07:02:22.582Z,22.92
2023-09-04T07:07:28.156Z,22.81
2023-09-04T07:12:37.240Z,23.13
2023-09-04T07:17:40.829Z,23.37
2023-09-04T07:22:44.426Z,23.93
2023-09-04T07:34:47.641Z,23.49
2023-09-04T07:39:57.831Z,23.59
2023-09-04T07:45:03.715Z,23.63
2023-09-04T07:50:10.215Z,23.76
2023-09-04T07:55:13.927Z,24.12
2023-09-04T08:00:23.135Z,24.02
2023-09-04T08:05:28.465Z,24.80
2023-09-04T08:10:32.306Z,25.07
2023-09-04T08:15:36.059Z,25.66
2023-09-04T08:20:41.845Z,26.10
2023-09-04T08:25:45.602Z,26.30
2023-09-04T08:30:49.273Z,25.88
2023-09-04T08:35:54.596Z,26.67
2023-09-04T08:41:01.923Z,26.87
2023-09-04T08:46:09.457Z,26.84
2023-09-04T08:51:21.255Z,26.40
2023-09-04T09:25:08.355Z,26.73
2023-09-04T09:30:14.591Z,27.16
2023-09-04T09:35:27.113Z,26.83
2023-09-04T09:41:28.770Z,26.35
2023-09-04T10:00:59.491Z,26.61
2023-09-04T10:06:06.721Z,25.99
2023-09-04T10:11:13.460Z,26.32
2023-09-04T10:16:29.931Z,26.56
2023-09-04T10:21:36.530Z,26.22
2023-09-04T10:26:56.048Z,25.65
2023-09-04T10:32:02.816Z,26.18
2023-09-04T10:37:06.933Z,25.85
2023-09-04T10:42:11.695Z,25.78
2023-09-04T11:44:38.926Z,25.61
2023-09-04T11:49:52.265Z,25.43
2023-09-04T11:55:03.736Z,25.33
2023-09-04T12:00:09.883Z,25.28
2023-09-04T12:05:20.003Z,25.16
2023-09-04T12:10:27.039Z,25.19
2023-09-04T12:24:22.696Z,25.33
2023-09-04T12:30:14.998Z,25.59
2023-09-04T12:42:26.405Z,25.64
2023-09-04T13:02:29.773Z,25.64
2023-09-04T13:07:34.310Z,25.75
2023-09-04T13:12:38.700Z,25.76
2023-09-04T13:17:44.736Z,25.56
2023-09-04T13:22:48.981Z,25.39
2023-09-04T13:27:52.453Z,25.31
2023-09-04T13:32:57.373Z,25.19
2023-09-04T13:38:00.950Z,25.18
2023-09-04T13:43:04.606Z,25.12
2023-09-04T13:48:10.094Z,25.55
2023-09-04T13:53:13.756Z,25.56
2023-09-04T13:58:17.326Z,25.60
2023-09-04T14:03:22.248Z,25.82
2023-09-04T14:08:25.756Z,25.97
2023-09-04T14:13:29.544Z,26.03
2023-09-04T14:18:34.753Z,25.80
2023-09-04T14:23:38.213Z,25.75
2023-09-04T14:28:41.819Z,25.71
2023-09-04T14:33:46.796Z,25.35
2023-09-04T14:38:52.518Z,25.42
2023-09-04T14:43:56.055Z,25.14
2023-09-04T14:49:01.545Z,25.11
2023-09-04T14:54:05.285Z,24.88
2023-09-04T14:59:08.779Z,24.84
2023-09-04T15:04:14.312Z,24.77
2023-09-04T15:09:17.921Z,24.60
2023-09-04T15:14:21.502Z,24.52
2023-09-04T15:19:26.466Z,24.49
2023-09-04T15:24:29.929Z,24.28
2023-09-04T15:29:33.422Z,24.16
2023-09-04T15:34:39.272Z,24.11
2023-09-04T15:39:43.006Z,24.16
2023-09-04T15:44:46.552Z,24.07
2023-09-04T15:49:51.479Z,23.92
2023-09-04T15:54:55.272Z,23.71
2023-09-04T15:59:58.811Z,23.23
2023-09-04T16:05:03.795Z,23.04
2023-09-04T16:10:08.359Z,22.95
2023-09-04T16:15:12.977Z,22.83
2023-09-04T16:20:18.238Z,22.90
2023-09-04T16:25:21.699Z,22.78
2023-09-04T16:30:25.388Z,22.57
2023-09-04T16:35:30.397Z,22.38
2023-09-04T16:40:33.989Z,22.42
2023-09-04T16:45:38.256Z,22.23
2023-09-04T16:50:43.213Z,22.23
2023-09-04T16:55:46.749Z,21.99
2023-09-04T17:00:50.286Z,21.98
2023-09-04T17:05:55.404Z,21.87
2023-09-04T17:11:00.268Z,21.91
2023-09-04T17:16:04.057Z,21.74
2023-09-04T17:21:09.692Z,21.67
2023-09-04T17:26:13.337Z,21.61
2023-09-04T17:31:17.468Z,21.65
2023-09-04T17:36:22.953Z,21.67
2023-09-04T17:41:27.022Z,21.58
2023-09-04T17:46:30.529Z,21.54
2023-09-04T17:51:35.701Z,21.43
2023-09-04T17:56:39.289Z,21.32
2023-09-04T18:01:42.874Z,21.23
2023-09-04T18:06:47.931Z,21.06
2023-09-04T18:11:51.532Z,21.03
2023-09-04T18:16:56.131Z,20.93
2023-09-04T18:22:01.510Z,20.87
2023-09-04T18:27:06.445Z,20.91
2023-09-04T18:32:09.957Z,20.90
2023-09-04T18:37:14.987Z,20.76
2023-09-04T18:42:18.536Z,20.75
2023-09-04T18:47:22.092Z,20.68
2023-09-04T18:52:27.044Z,20.53
2023-09-04T18:57:31.474Z,20.40
2023-09-04T19:02:35.032Z,20.55
2023-09-04T19:07:42.229Z,20.43
2023-09-04T19:12:46.856Z,20.40
2023-09-04T19:17:50.651Z,20.32
2023-09-04T19:22:55.793Z,20.21
2023-09-04T19:27:59.456Z,20.28
2023-09-04T19:33:04.206Z,20.05
2023-09-04T19:38:09.173Z,20.05
2023-09-04T19:43:12.714Z,19.84
2023-09-04T19:48:16.223Z,19.74
2023-09-04T19:53:21.167Z,19.93
2023-09-04T19:58:26.454Z,19.76
2023-09-04T20:03:30.539Z,19.88
2023-09-04T20:08:36.773Z,19.82
2023-09-04T20:13:42.135Z,19.56
2023-09-04T20:18:45.905Z,19.46
2023-09-04T20:23:55.623Z,19.42
2023-09-04T20:28:59.413Z,19.33
2023-09-04T20:34:02.852Z,19.56
2023-09-04T20:39:08.241Z,19.26
2023-09-04T20:44:11.952Z,19.17
2023-09-04T20:49:15.579Z,19.02
2023-09-04T20:54:20.660Z,19.01
2023-09-04T20:59:24.216Z,19.13
2023-09-04T21:04:27.702Z,19.00
2023-09-04T21:09:31.418Z,18.83
2023-09-04T21:14:52.366Z,19.03
2023-09-04T21:20:13.632Z,18.83
2023-09-04T21:25:36.084Z,18.81
2023-09-04T21:30:58.393Z,18.71
2023-09-04T21:36:19.286Z,18.63
2023-09-04T21:41:41.754Z,18.67
2023-09-04T21:47:02.741Z,18.70
2023-09-04T21:52:24.284Z,18.71
2023-09-04T21:57:46.666Z,18.79
2023-09-04T22:03:07.696Z,18.59
2023-09-04T22:08:28.920Z,18.45
2023-09-04T22:13:51.518Z,18.35
2023-09-04T22:19:12.398Z,18.30
2023-09-04T22:24:33.491Z,18.24
2023-09-04T22:29:56.847Z,18.36
2023-09-04T22:35:17.755Z,18.40
2023-09-04T22:40:38.728Z,18.39
2023-09-04T22:46:01.222Z,18.34
2023-09-04T22:51:22.315Z,18.53
2023-09-04T22:56:43.121Z,18.32
2023-09-04T23:02:05.708Z,18.32
2023-09-04T23:07:26.496Z,18.56
2023-09-04T23:12:47.424Z,18.41
2023-09-04T23:18:09.746Z,18.48
2023-09-04T23:23:15.164Z,18.40
2023-09-04T23:28:23.943Z,18.52
2023-09-04T23:33:46.627Z,18.46
2023-09-04T23:39:09.313Z,18.51
2023-09-04T23:44:26.697Z,18.63
2023-09-04T23:49:31.980Z,18.42
2023-09-04T23:54:35.575Z,18.54
2023-09-04T23:59:39.870Z,18.51
